sensor_id;sensor_type;location;lat;lon;timestamp;P1;durP1;ratioP1;P2;durP2;ratioP2
13469;SDS011;6807;48.682;9.032;2023-05-10T00:00:28;2.15;;;1.80;;
13469;SDS011;6807;48.682;9.032;2023-05-10T00:02:55;3.85;;;1.70;;
13469;SDS011;6807;48.682;9.032;2023-05-10T00:05:22;1.70;;;1.60;;
13469;SDS011;6807;48.682;9.032;2023-05-10T00:07:49;1.85;;;1.75;;
13469;SDS011;6807;48.682;9.032;2023-05-10T00:10:16;1.70;;;1.60;;
13469;SDS011;6807;48.682;9.032;2023-05-10T00:12:43;2.90;;;1.50;;
13469;SDS011;6807;48.682;9.032;2023-05-10T00:15:10;1.45;;;1.35;;
13469;SDS011;6807;48.682;9.032;2023-05-10T00:17:39;1.83;;;1.73;;
13469;SDS011;6807;48.682;9.032;2023-05-10T00:20:06;1.60;;;1.50;;
13469;SDS011;6807;48.682;9.032;2023-05-10T00:22:34;2.97;;;1.60;;
13469;SDS011;6807;48.682;9.032;2023-05-10T00:25:01;1.50;;;1.40;;
13469;SDS011;6807;48.682;9.032;2023-05-10T00:27:28;1.40;;;1.30;;
13469;SDS011;6807;48.682;9.032;2023-05-10T00:29:55;1.60;;;1.50;;
13469;SDS011;6807;48.682;9.032;2023-05-10T00:32:22;1.40;;;1.30;;
13469;SDS011;6807;48.682;9.032;2023-05-10T00:34:51;1.33;;;1.23;;
13469;SDS011;6807;48.682;9.032;2023-05-10T00:37:18;1.38;;;1.27;;
13469;SDS011;6807;48.682;9.032;2023-05-10T00:39:45;1.45;;;1.35;;
13469;SDS011;6807;48.682;9.032;2023-05-10T00:42:12;1.92;;;1.10;;
13469;SDS011;6807;48.682;9.032;2023-05-10T00:44:39;1.30;;;1.20;;
13469;SDS011;6807;48.682;9.032;2023-05-10T00:47:06;1.00;;;1.00;;
13469;SDS011;6807;48.682;9.032;2023-05-10T00:49:34;0.95;;;0.95;;
13469;SDS011;6807;48.682;9.032;2023-05-10T00:52:03;1.05;;;1.05;;
13469;SDS011;6807;48.682;9.032;2023-05-10T00:54:31;0.80;;;0.80;;
13469;SDS011;6807;48.682;9.032;2023-05-10T00:56:58;1.00;;;1.00;;
13469;SDS011;6807;48.682;9.032;2023-05-10T00:59:25;1.13;;;0.90;;
13469;SDS011;6807;48.682;9.032;2023-05-10T01:01:52;0.93;;;0.93;;
13469;SDS011;6807;48.682;9.032;2023-05-10T01:04:20;0.95;;;0.95;;
13469;SDS011;6807;48.682;9.032;2023-05-10T01:06:50;1.02;;;1.00;;
13469;SDS011;6807;48.682;9.032;2023-05-10T01:09:20;0.90;;;0.90;;
13469;SDS011;6807;48.682;9.032;2023-05-10T01:11:48;1.00;;;1.00;;
13469;SDS011;6807;48.682;9.032;2023-05-10T01:14:16;1.75;;;1.08;;
13469;SDS011;6807;48.682;9.032;2023-05-10T01:16:45;4.07;;;0.90;;
13469;SDS011;6807;48.682;9.032;2023-05-10T01:19:17;0.90;;;0.90;;
13469;SDS011;6807;48.682;9.032;2023-05-10T01:21:48;1.27;;;1.00;;
13469;SDS011;6807;48.682;9.032;2023-05-10T01:24:32;0.93;;;0.93;;
13469;SDS011;6807;48.682;9.032;2023-05-10T01:27:30;1.08;;;1.08;;
13469;SDS011;6807;48.682;9.032;2023-05-10T01:33:20;0.93;;;0.93;;
13469;SDS011;6807;48.682;9.032;2023-05-10T01:35:55;1.20;;;1.10;;
13469;SDS011;6807;48.682;9.032;2023-05-10T01:38:32;1.10;;;1.10;;
13469;SDS011;6807;48.682;9.032;2023-05-10T01:41:07;1.50;;;1.10;;
13469;SDS011;6807;48.682;9.032;2023-05-10T01:43:41;2.65;;;1.10;;
13469;SDS011;6807;48.682;9.032;2023-05-10T01:46:14;0.95;;;0.95;;
13469;SDS011;6807;48.682;9.032;2023-05-10T01:48:48;0.93;;;0.93;;
13469;SDS011;6807;48.682;9.032;2023-05-10T01:51:21;1.08;;;1.08;;
13469;SDS011;6807;48.682;9.032;2023-05-10T01:53:51;1.00;;;1.00;;
13469;SDS011;6807;48.682;9.032;2023-05-10T01:56:25;1.00;;;1.00;;
13469;SDS011;6807;48.682;9.032;2023-05-10T01:58:53;1.10;;;1.10;;
13469;SDS011;6807;48.682;9.032;2023-05-10T02:01:21;1.45;;;1.20;;
13469;SDS011;6807;48.682;9.032;2023-05-10T02:03:52;1.05;;;1.00;;
13469;SDS011;6807;48.682;9.032;2023-05-10T02:06:21;1.15;;;1.10;;
13469;SDS011;6807;48.682;9.032;2023-05-10T02:08:50;1.20;;;1.10;;
13469;SDS011;6807;48.682;9.032;2023-05-10T02:11:18;2.08;;;1.30;;
13469;SDS011;6807;48.682;9.032;2023-05-10T02:13:47;1.20;;;1.00;;
13469;SDS011;6807;48.682;9.032;2023-05-10T02:16:16;1.13;;;1.10;;
13469;SDS011;6807;48.682;9.032;2023-05-10T02:18:49;1.40;;;1.30;;
13469;SDS011;6807;48.682;9.032;2023-05-10T02:21:19;1.27;;;1.20;;
13469;SDS011;6807;48.682;9.032;2023-05-10T02:23:48;1.63;;;1.52;;
13469;SDS011;6807;48.682;9.032;2023-05-10T02:26:18;2.00;;;1.50;;
13469;SDS011;6807;48.682;9.032;2023-05-10T02:28:47;1.40;;;1.30;;
13469;SDS011;6807;48.682;9.032;2023-05-10T02:31:16;1.48;;;1.38;;
13469;SDS011;6807;48.682;9.032;2023-05-10T02:33:44;2.55;;;1.30;;
13469;SDS011;6807;48.682;9.032;2023-05-10T02:36:15;1.85;;;1.30;;
13469;SDS011;6807;48.682;9.032;2023-05-10T02:38:44;1.35;;;1.25;;
13469;SDS011;6807;48.682;9.032;2023-05-10T02:41:11;2.80;;;1.30;;
13469;SDS011;6807;48.682;9.032;2023-05-10T02:43:39;1.45;;;1.35;;
13469;SDS011;6807;48.682;9.032;2023-05-10T02:46:07;7.13;;;1.45;;
13469;SDS011;6807;48.682;9.032;2023-05-10T02:48:35;1.33;;;1.23;;
13469;SDS011;6807;48.682;9.032;2023-05-10T02:51:04;1.30;;;1.20;;
13469;SDS011;6807;48.682;9.032;2023-05-10T02:53:35;2.20;;;1.33;;
13469;SDS011;6807;48.682;9.032;2023-05-10T02:56:05;2.35;;;1.30;;
13469;SDS011;6807;48.682;9.032;2023-05-10T02:58:38;1.50;;;1.40;;
13469;SDS011;6807;48.682;9.032;2023-05-10T03:01:05;2.78;;;1.40;;
13469;SDS011;6807;48.682;9.032;2023-05-10T03:03:33;3.20;;;1.40;;
13469;SDS011;6807;48.682;9.032;2023-05-10T03:06:02;1.40;;;1.30;;
13469;SDS011;6807;48.682;9.032;2023-05-10T03:08:30;1.55;;;1.45;;
13469;SDS011;6807;48.682;9.032;2023-05-10T03:11:05;5.78;;;1.65;;
13469;SDS011;6807;48.682;9.032;2023-05-10T03:13:44;3.40;;;1.40;;
13469;SDS011;6807;48.682;9.032;2023-05-10T03:16:25;3.28;;;1.80;;
13469;SDS011;6807;48.682;9.032;2023-05-10T03:19:01;1.50;;;1.40;;
13469;SDS011;6807;48.682;9.032;2023-05-10T03:21:34;1.75;;;1.50;;
13469;SDS011;6807;48.682;9.032;2023-05-10T03:24:08;1.60;;;1.50;;
13469;SDS011;6807;48.682;9.032;2023-05-10T03:26:41;1.58;;;1.48;;
13469;SDS011;6807;48.682;9.032;2023-05-10T03:29:13;1.52;;;1.42;;
13469;SDS011;6807;48.682;9.032;2023-05-10T03:31:41;1.63;;;1.33;;
13469;SDS011;6807;48.682;9.032;2023-05-10T03:34:09;1.50;;;1.40;;
13469;SDS011;6807;48.682;9.032;2023-05-10T03:36:37;2.08;;;1.30;;
13469;SDS011;6807;48.682;9.032;2023-05-10T03:39:04;4.13;;;1.60;;
13469;SDS011;6807;48.682;9.032;2023-05-10T03:41:31;5.47;;;1.60;;
13469;SDS011;6807;48.682;9.032;2023-05-10T03:44:00;1.70;;;1.60;;
13469;SDS011;6807;48.682;9.032;2023-05-10T03:46:27;3.30;;;1.70;;
13469;SDS011;6807;48.682;9.032;2023-05-10T03:48:54;2.03;;;1.42;;
13469;SDS011;6807;48.682;9.032;2023-05-10T03:51:21;1.98;;;1.45;;
13469;SDS011;6807;48.682;9.032;2023-05-10T03:53:49;2.28;;;1.90;;
13469;SDS011;6807;48.682;9.032;2023-05-10T03:56:16;3.28;;;1.50;;
13469;SDS011;6807;48.682;9.032;2023-05-10T03:58:43;1.60;;;1.50;;
13469;SDS011;6807;48.682;9.032;2023-05-10T04:01:11;2.00;;;1.85;;
13469;SDS011;6807;48.682;9.032;2023-05-10T04:03:39;4.63;;;1.92;;
13469;SDS011;6807;48.682;9.032;2023-05-10T04:06:06;2.65;;;1.80;;
13469;SDS011;6807;48.682;9.032;2023-05-10T04:08:34;1.70;;;1.58;;
13469;SDS011;6807;48.682;9.032;2023-05-10T04:11:04;2.22;;;2.10;;
13469;SDS011;6807;48.682;9.032;2023-05-10T04:13:32;1.80;;;1.70;;
13469;SDS011;6807;48.682;9.032;2023-05-10T04:15:59;2.10;;;1.52;;
13469;SDS011;6807;48.682;9.032;2023-05-10T04:18:28;1.60;;;1.50;;
13469;SDS011;6807;48.682;9.032;2023-05-10T04:20:55;1.73;;;1.63;;
13469;SDS011;6807;48.682;9.032;2023-05-10T04:23:22;1.92;;;1.80;;
13469;SDS011;6807;48.682;9.032;2023-05-10T04:25:49;2.70;;;1.90;;
13469;SDS011;6807;48.682;9.032;2023-05-10T04:28:16;3.05;;;1.60;;
13469;SDS011;6807;48.682;9.032;2023-05-10T04:30:43;2.67;;;1.77;;
13469;SDS011;6807;48.682;9.032;2023-05-10T04:33:10;2.00;;;1.77;;
13469;SDS011;6807;48.682;9.032;2023-05-10T04:35:39;1.88;;;1.70;;
13469;SDS011;6807;48.682;9.032;2023-05-10T04:38:07;2.00;;;1.60;;
13469;SDS011;6807;48.682;9.032;2023-05-10T04:40:34;2.75;;;1.73;;
13469;SDS011;6807;48.682;9.032;2023-05-10T04:43:01;1.80;;;1.70;;
13469;SDS011;6807;48.682;9.032;2023-05-10T04:45:28;2.08;;;1.88;;
13469;SDS011;6807;48.682;9.032;2023-05-10T04:47:55;1.80;;;1.70;;
13469;SDS011;6807;48.682;9.032;2023-05-10T04:50:22;2.22;;;1.90;;
13469;SDS011;6807;48.682;9.032;2023-05-10T04:52:51;3.58;;;2.00;;
13469;SDS011;6807;48.682;9.032;2023-05-10T04:55:18;2.50;;;2.10;;
13469;SDS011;6807;48.682;9.032;2023-05-10T04:57:45;1.92;;;1.65;;
13469;SDS011;6807;48.682;9.032;2023-05-10T05:00:12;1.90;;;1.70;;
13469;SDS011;6807;48.682;9.032;2023-05-10T05:02:42;1.90;;;1.80;;
13469;SDS011;6807;48.682;9.032;2023-05-10T05:05:10;1.70;;;1.60;;
13469;SDS011;6807;48.682;9.032;2023-05-10T05:07:37;1.85;;;1.70;;
13469;SDS011;6807;48.682;9.032;2023-05-10T05:10:07;1.60;;;1.50;;
13469;SDS011;6807;48.682;9.032;2023-05-10T05:12:34;1.95;;;1.80;;
13469;SDS011;6807;48.682;9.032;2023-05-10T05:15:02;2.05;;;1.85;;
13469;SDS011;6807;48.682;9.032;2023-05-10T05:17:29;2.03;;;1.88;;
13469;SDS011;6807;48.682;9.032;2023-05-10T05:19:57;2.30;;;1.67;;
13469;SDS011;6807;48.682;9.032;2023-05-10T05:22:24;2.00;;;1.63;;
13469;SDS011;6807;48.682;9.032;2023-05-10T05:24:53;2.78;;;1.60;;
13469;SDS011;6807;48.682;9.032;2023-05-10T05:27:21;1.70;;;1.60;;
13469;SDS011;6807;48.682;9.032;2023-05-10T05:29:49;1.88;;;1.77;;
13469;SDS011;6807;48.682;9.032;2023-05-10T05:32:16;1.80;;;1.70;;
13469;SDS011;6807;48.682;9.032;2023-05-10T05:34:44;2.15;;;1.80;;
13469;SDS011;6807;48.682;9.032;2023-05-10T05:37:12;1.73;;;1.60;;
13469;SDS011;6807;48.682;9.032;2023-05-10T05:39:40;1.80;;;1.67;;
13469;SDS011;6807;48.682;9.032;2023-05-10T05:42:07;2.00;;;1.55;;
13469;SDS011;6807;48.682;9.032;2023-05-10T05:44:36;6.80;;;1.83;;
13469;SDS011;6807;48.682;9.032;2023-05-10T05:47:04;3.08;;;1.80;;
13469;SDS011;6807;48.682;9.032;2023-05-10T05:49:31;1.75;;;1.65;;
13469;SDS011;6807;48.682;9.032;2023-05-10T05:51:59;1.73;;;1.63;;
13469;SDS011;6807;48.682;9.032;2023-05-10T05:54:26;1.85;;;1.58;;
13469;SDS011;6807;48.682;9.032;2023-05-10T05:56:54;1.70;;;1.60;;
13469;SDS011;6807;48.682;9.032;2023-05-10T05:59:21;2.38;;;1.70;;
13469;SDS011;6807;48.682;9.032;2023-05-10T06:01:50;4.20;;;1.77;;
13469;SDS011;6807;48.682;9.032;2023-05-10T06:04:17;1.88;;;1.50;;
13469;SDS011;6807;48.682;9.032;2023-05-10T06:06:45;1.70;;;1.60;;
13469;SDS011;6807;48.682;9.032;2023-05-10T06:09:12;3.70;;;1.52;;
13469;SDS011;6807;48.682;9.032;2023-05-10T06:11:39;1.75;;;1.50;;
13469;SDS011;6807;48.682;9.032;2023-05-10T06:14:06;2.30;;;1.70;;
13469;SDS011;6807;48.682;9.032;2023-05-10T06:16:33;1.80;;;1.70;;
13469;SDS011;6807;48.682;9.032;2023-05-10T06:19:02;1.65;;;1.55;;
13469;SDS011;6807;48.682;9.032;2023-05-10T06:21:29;1.95;;;1.77;;
13469;SDS011;6807;48.682;9.032;2023-05-10T06:23:56;1.98;;;1.60;;
13469;SDS011;6807;48.682;9.032;2023-05-10T06:26:25;3.40;;;1.73;;
13469;SDS011;6807;48.682;9.032;2023-05-10T06:28:52;1.80;;;1.70;;
13469;SDS011;6807;48.682;9.032;2023-05-10T06:31:19;1.90;;;1.80;;
13469;SDS011;6807;48.682;9.032;2023-05-10T06:33:47;1.95;;;1.85;;
13469;SDS011;6807;48.682;9.032;2023-05-10T06:36:15;1.80;;;1.70;;
13469;SDS011;6807;48.682;9.032;2023-05-10T06:38:42;2.78;;;1.60;;
13469;SDS011;6807;48.682;9.032;2023-05-10T06:41:09;1.90;;;1.80;;
13469;SDS011;6807;48.682;9.032;2023-05-10T06:43:36;2.08;;;1.80;;
13469;SDS011;6807;48.682;9.032;2023-05-10T06:46:05;2.10;;;1.90;;
13469;SDS011;6807;48.682;9.032;2023-05-10T06:48:32;2.28;;;1.88;;
13469;SDS011;6807;48.682;9.032;2023-05-10T06:50:59;2.22;;;2.03;;
13469;SDS011;6807;48.682;9.032;2023-05-10T06:53:28;1.55;;;1.45;;
13469;SDS011;6807;48.682;9.032;2023-05-10T06:55:55;2.28;;;1.70;;
13469;SDS011;6807;48.682;9.032;2023-05-10T06:58:23;1.70;;;1.60;;
13469;SDS011;6807;48.682;9.032;2023-05-10T07:00:50;1.67;;;1.58;;
13469;SDS011;6807;48.682;9.032;2023-05-10T07:03:17;2.50;;;1.80;;
13469;SDS011;6807;48.682;9.032;2023-05-10T07:05:44;1.70;;;1.60;;
13469;SDS011;6807;48.682;9.032;2023-05-10T07:08:11;1.58;;;1.48;;
13469;SDS011;6807;48.682;9.032;2023-05-10T07:10:41;1.83;;;1.70;;
13469;SDS011;6807;48.682;9.032;2023-05-10T07:13:08;1.85;;;1.63;;
13469;SDS011;6807;48.682;9.032;2023-05-10T07:15:36;1.67;;;1.58;;
13469;SDS011;6807;48.682;9.032;2023-05-10T07:18:03;3.17;;;1.70;;
13469;SDS011;6807;48.682;9.032;2023-05-10T07:20:31;2.05;;;1.60;;
13469;SDS011;6807;48.682;9.032;2023-05-10T07:22:58;1.95;;;1.60;;
13469;SDS011;6807;48.682;9.032;2023-05-10T07:25:25;2.30;;;1.60;;
13469;SDS011;6807;48.682;9.032;2023-05-10T07:27:54;2.05;;;1.50;;
13469;SDS011;6807;48.682;9.032;2023-05-10T07:30:21;2.22;;;1.70;;
13469;SDS011;6807;48.682;9.032;2023-05-10T07:32:48;1.77;;;1.67;;
13469;SDS011;6807;48.682;9.032;2023-05-10T07:35:15;3.67;;;1.70;;
13469;SDS011;6807;48.682;9.032;2023-05-10T07:37:43;2.45;;;1.52;;
13469;SDS011;6807;48.682;9.032;2023-05-10T07:40:10;3.47;;;1.52;;
13469;SDS011;6807;48.682;9.032;2023-05-10T07:42:37;2.17;;;1.52;;
13469;SDS011;6807;48.682;9.032;2023-05-10T07:45:06;2.10;;;1.50;;
13469;SDS011;6807;48.682;9.032;2023-05-10T07:47:34;1.65;;;1.50;;
13469;SDS011;6807;48.682;9.032;2023-05-10T07:50:01;3.88;;;1.58;;
13469;SDS011;6807;48.682;9.032;2023-05-10T07:52:28;1.90;;;1.50;;
13469;SDS011;6807;48.682;9.032;2023-05-10T07:54:55;1.48;;;1.38;;
13469;SDS011;6807;48.682;9.032;2023-05-10T07:57:22;1.33;;;1.23;;
13469;SDS011;6807;48.682;9.032;2023-05-10T07:59:49;1.90;;;1.30;;
13469;SDS011;6807;48.682;9.032;2023-05-10T08:02:18;1.50;;;1.20;;
13469;SDS011;6807;48.682;9.032;2023-05-10T08:04:45;2.67;;;1.00;;
13469;SDS011;6807;48.682;9.032;2023-05-10T08:07:12;1.30;;;1.20;;
13469;SDS011;6807;48.682;9.032;2023-05-10T08:09:39;1.40;;;1.30;;
13469;SDS011;6807;48.682;9.032;2023-05-10T08:12:06;3.13;;;1.13;;
13469;SDS011;6807;48.682;9.032;2023-05-10T08:14:33;1.85;;;1.30;;
13469;SDS011;6807;48.682;9.032;2023-05-10T08:17:01;1.48;;;1.00;;
13469;SDS011;6807;48.682;9.032;2023-05-10T08:19:30;1.30;;;1.20;;
13469;SDS011;6807;48.682;9.032;2023-05-10T08:21:57;1.17;;;1.08;;
13469;SDS011;6807;48.682;9.032;2023-05-10T08:24:24;1.55;;;1.20;;
13469;SDS011;6807;48.682;9.032;2023-05-10T08:26:51;1.42;;;1.20;;
13469;SDS011;6807;48.682;9.032;2023-05-10T08:29:18;1.17;;;1.10;;
13469;SDS011;6807;48.682;9.032;2023-05-10T08:31:45;1.92;;;0.98;;
13469;SDS011;6807;48.682;9.032;2023-05-10T08:34:12;1.13;;;1.10;;
13469;SDS011;6807;48.682;9.032;2023-05-10T08:36:41;1.50;;;1.10;;
13469;SDS011;6807;48.682;9.032;2023-05-10T08:39:08;1.30;;;1.20;;
13469;SDS011;6807;48.682;9.032;2023-05-10T08:41:35;1.13;;;1.13;;
13469;SDS011;6807;48.682;9.032;2023-05-10T08:44:06;1.70;;;1.60;;
13469;SDS011;6807;48.682;9.032;2023-05-10T08:46:35;1.95;;;1.20;;
13469;SDS011;6807;48.682;9.032;2023-05-10T08:49:05;1.42;;;1.30;;
13469;SDS011;6807;48.682;9.032;2023-05-10T08:51:36;1.48;;;1.10;;
13469;SDS011;6807;48.682;9.032;2023-05-10T08:54:07;1.88;;;1.10;;
13469;SDS011;6807;48.682;9.032;2023-05-10T08:56:35;1.17;;;1.02;;
13469;SDS011;6807;48.682;9.032;2023-05-10T08:59:03;1.00;;;1.00;;
13469;SDS011;6807;48.682;9.032;2023-05-10T09:01:30;1.23;;;1.10;;
13469;SDS011;6807;48.682;9.032;2023-05-10T09:03:58;1.23;;;1.13;;
13469;SDS011;6807;48.682;9.032;2023-05-10T09:06:26;0.98;;;0.93;;
13469;SDS011;6807;48.682;9.032;2023-05-10T09:08:53;2.45;;;1.10;;
13469;SDS011;6807;48.682;9.032;2023-05-10T09:11:22;0.90;;;0.90;;
13469;SDS011;6807;48.682;9.032;2023-05-10T09:13:50;1.00;;;1.00;;
13469;SDS011;6807;48.682;9.032;2023-05-10T09:16:18;0.90;;;0.90;;
13469;SDS011;6807;48.682;9.032;2023-05-10T09:18:45;1.10;;;1.02;;
13469;SDS011;6807;48.682;9.032;2023-05-10T09:21:12;3.45;;;1.08;;
13469;SDS011;6807;48.682;9.032;2023-05-10T09:23:42;1.20;;;1.00;;
13469;SDS011;6807;48.682;9.032;2023-05-10T09:26:10;1.20;;;1.10;;
13469;SDS011;6807;48.682;9.032;2023-05-10T09:28:50;1.05;;;0.95;;
13469;SDS011;6807;48.682;9.032;2023-05-10T09:31:18;1.10;;;1.10;;
13469;SDS011;6807;48.682;9.032;2023-05-10T09:33:46;1.10;;;1.05;;
13469;SDS011;6807;48.682;9.032;2023-05-10T09:36:13;1.08;;;1.08;;
13469;SDS011;6807;48.682;9.032;2023-05-10T09:38:45;1.05;;;0.90;;
13469;SDS011;6807;48.682;9.032;2023-05-10T09:41:16;1.05;;;1.05;;
13469;SDS011;6807;48.682;9.032;2023-05-10T09:43:44;1.05;;;1.05;;
13469;SDS011;6807;48.682;9.032;2023-05-10T09:46:12;1.00;;;1.00;;
13469;SDS011;6807;48.682;9.032;2023-05-10T09:48:41;0.90;;;0.90;;
13469;SDS011;6807;48.682;9.032;2023-05-10T09:51:10;3.05;;;1.10;;
13469;SDS011;6807;48.682;9.032;2023-05-10T09:53:37;0.82;;;0.82;;
13469;SDS011;6807;48.682;9.032;2023-05-10T09:56:04;0.80;;;0.80;;
13469;SDS011;6807;48.682;9.032;2023-05-10T09:58:31;1.65;;;1.00;;
13469;SDS011;6807;48.682;9.032;2023-05-10T10:01:03;1.00;;;1.00;;
13469;SDS011;6807;48.682;9.032;2023-05-10T10:03:32;0.90;;;0.90;;
13469;SDS011;6807;48.682;9.032;2023-05-10T10:05:59;1.10;;;1.00;;
13469;SDS011;6807;48.682;9.032;2023-05-10T10:08:27;2.08;;;1.00;;
13469;SDS011;6807;48.682;9.032;2023-05-10T10:10:54;1.00;;;0.95;;
13469;SDS011;6807;48.682;9.032;2023-05-10T10:13:21;1.10;;;1.00;;
13469;SDS011;6807;48.682;9.032;2023-05-10T10:16:04;0.93;;;0.93;;
13469;SDS011;6807;48.682;9.032;2023-05-10T10:18:54;0.90;;;0.90;;
13469;SDS011;6807;48.682;9.032;2023-05-10T10:21:22;1.27;;;1.00;;
13469;SDS011;6807;48.682;9.032;2023-05-10T10:23:50;1.33;;;0.98;;
13469;SDS011;6807;48.682;9.032;2023-05-10T10:26:19;2.13;;;1.00;;
13469;SDS011;6807;48.682;9.032;2023-05-10T10:28:49;2.50;;;1.00;;
13469;SDS011;6807;48.682;9.032;2023-05-10T10:31:27;1.20;;;1.10;;
13469;SDS011;6807;48.682;9.032;2023-05-10T10:34:06;1.35;;;0.98;;
13469;SDS011;6807;48.682;9.032;2023-05-10T10:36:42;0.93;;;0.93;;
13469;SDS011;6807;48.682;9.032;2023-05-10T10:39:16;1.00;;;1.00;;
13469;SDS011;6807;48.682;9.032;2023-05-10T10:42:14;0.93;;;0.90;;
13469;SDS011;6807;48.682;9.032;2023-05-10T10:47:54;2.30;;;1.20;;
13469;SDS011;6807;48.682;9.032;2023-05-10T10:50:51;1.65;;;1.33;;
13469;SDS011;6807;48.682;9.032;2023-05-10T10:53:23;1.67;;;1.15;;
13469;SDS011;6807;48.682;9.032;2023-05-10T10:56:29;1.17;;;1.02;;
13469;SDS011;6807;48.682;9.032;2023-05-10T10:59:01;1.20;;;1.10;;
13469;SDS011;6807;48.682;9.032;2023-05-10T11:01:32;1.70;;;1.10;;
13469;SDS011;6807;48.682;9.032;2023-05-10T11:04:18;1.15;;;1.15;;
13469;SDS011;6807;48.682;9.032;2023-05-10T11:06:47;2.30;;;1.20;;
13469;SDS011;6807;48.682;9.032;2023-05-10T11:09:16;2.53;;;1.10;;
13469;SDS011;6807;48.682;9.032;2023-05-10T11:11:51;1.75;;;1.00;;
13469;SDS011;6807;48.682;9.032;2023-05-10T11:14:33;1.48;;;1.10;;
13469;SDS011;6807;48.682;9.032;2023-05-10T11:17:22;1.25;;;1.10;;
13469;SDS011;6807;48.682;9.032;2023-05-10T11:23:10;2.65;;;1.10;;
13469;SDS011;6807;48.682;9.032;2023-05-10T11:26:08;1.20;;;1.02;;
13469;SDS011;6807;48.682;9.032;2023-05-10T11:28:40;1.45;;;1.15;;
13469;SDS011;6807;48.682;9.032;2023-05-10T11:31:08;1.27;;;1.17;;
13469;SDS011;6807;48.682;9.032;2023-05-10T11:33:42;3.47;;;1.20;;
13469;SDS011;6807;48.682;9.032;2023-05-10T11:36:10;1.85;;;1.30;;
13469;SDS011;6807;48.682;9.032;2023-05-10T11:38:39;1.30;;;1.20;;
13469;SDS011;6807;48.682;9.032;2023-05-10T11:41:07;1.13;;;1.13;;
13469;SDS011;6807;48.682;9.032;2023-05-10T11:43:36;1.30;;;1.20;;
13469;SDS011;6807;48.682;9.032;2023-05-10T11:46:04;1.80;;;1.23;;
13469;SDS011;6807;48.682;9.032;2023-05-10T11:48:32;1.20;;;1.10;;
13469;SDS011;6807;48.682;9.032;2023-05-10T11:51:00;1.23;;;1.10;;
13469;SDS011;6807;48.682;9.032;2023-05-10T11:53:29;1.20;;;1.10;;
13469;SDS011;6807;48.682;9.032;2023-05-10T11:56:03;1.17;;;1.13;;
13469;SDS011;6807;48.682;9.032;2023-05-10T11:58:31;1.20;;;1.10;;
13469;SDS011;6807;48.682;9.032;2023-05-10T12:00:59;1.55;;;1.40;;
13469;SDS011;6807;48.682;9.032;2023-05-10T12:03:28;1.58;;;1.20;;
13469;SDS011;6807;48.682;9.032;2023-05-10T12:05:55;2.30;;;1.15;;
13469;SDS011;6807;48.682;9.032;2023-05-10T12:08:24;4.72;;;1.35;;
13469;SDS011;6807;48.682;9.032;2023-05-10T12:10:54;3.22;;;1.30;;
13469;SDS011;6807;48.682;9.032;2023-05-10T12:13:32;4.75;;;1.30;;
13469;SDS011;6807;48.682;9.032;2023-05-10T12:16:13;1.55;;;1.20;;
13469;SDS011;6807;48.682;9.032;2023-05-10T12:18:43;1.27;;;1.17;;
13469;SDS011;6807;48.682;9.032;2023-05-10T12:21:10;4.07;;;1.30;;
13469;SDS011;6807;48.682;9.032;2023-05-10T12:23:42;1.65;;;1.17;;
13469;SDS011;6807;48.682;9.032;2023-05-10T12:26:13;1.65;;;1.10;;
13469;SDS011;6807;48.682;9.032;2023-05-10T12:28:47;1.13;;;1.00;;
13469;SDS011;6807;48.682;9.032;2023-05-10T12:31:14;2.50;;;1.30;;
13469;SDS011;6807;48.682;9.032;2023-05-10T12:33:44;2.25;;;1.20;;
13469;SDS011;6807;48.682;9.032;2023-05-10T12:36:13;2.30;;;1.70;;
13469;SDS011;6807;48.682;9.032;2023-05-10T12:38:41;1.33;;;1.20;;
13469;SDS011;6807;48.682;9.032;2023-05-10T12:41:15;4.80;;;1.83;;
13469;SDS011;6807;48.682;9.032;2023-05-10T12:43:43;1.20;;;1.10;;
13469;SDS011;6807;48.682;9.032;2023-05-10T12:46:11;2.38;;;1.20;;
13469;SDS011;6807;48.682;9.032;2023-05-10T12:48:39;2.65;;;1.15;;
13469;SDS011;6807;48.682;9.032;2023-05-10T12:51:08;2.38;;;1.15;;
13469;SDS011;6807;48.682;9.032;2023-05-10T12:53:38;2.53;;;1.20;;
13469;SDS011;6807;48.682;9.032;2023-05-10T12:56:05;3.10;;;1.20;;
13469;SDS011;6807;48.682;9.032;2023-05-10T12:58:35;4.35;;;1.40;;
13469;SDS011;6807;48.682;9.032;2023-05-10T13:01:02;1.92;;;1.23;;
13469;SDS011;6807;48.682;9.032;2023-05-10T13:03:29;1.42;;;1.33;;
13469;SDS011;6807;48.682;9.032;2023-05-10T13:05:56;2.05;;;1.40;;
13469;SDS011;6807;48.682;9.032;2023-05-10T13:08:24;2.00;;;1.20;;
13469;SDS011;6807;48.682;9.032;2023-05-10T13:10:51;2.25;;;1.20;;
13469;SDS011;6807;48.682;9.032;2023-05-10T13:13:18;2.40;;;1.10;;
13469;SDS011;6807;48.682;9.032;2023-05-10T13:15:47;1.33;;;1.23;;
13469;SDS011;6807;48.682;9.032;2023-05-10T13:18:14;1.08;;;1.00;;
13469;SDS011;6807;48.682;9.032;2023-05-10T13:20:41;1.98;;;1.13;;
13469;SDS011;6807;48.682;9.032;2023-05-10T13:23:09;2.03;;;1.30;;
13469;SDS011;6807;48.682;9.032;2023-05-10T13:25:36;4.10;;;1.20;;
13469;SDS011;6807;48.682;9.032;2023-05-10T13:28:04;2.15;;;1.20;;
13469;SDS011;6807;48.682;9.032;2023-05-10T13:30:31;2.78;;;1.20;;
13469;SDS011;6807;48.682;9.032;2023-05-10T13:33:00;2.53;;;1.17;;
13469;SDS011;6807;48.682;9.032;2023-05-10T13:35:27;1.30;;;1.20;;
13469;SDS011;6807;48.682;9.032;2023-05-10T13:37:54;1.88;;;1.40;;
13469;SDS011;6807;48.682;9.032;2023-05-10T13:40:22;1.42;;;1.30;;
13469;SDS011;6807;48.682;9.032;2023-05-10T13:42:49;2.33;;;1.17;;
13469;SDS011;6807;48.682;9.032;2023-05-10T13:45:18;1.58;;;1.23;;
13469;SDS011;6807;48.682;9.032;2023-05-10T13:47:45;1.23;;;1.13;;
13469;SDS011;6807;48.682;9.032;2023-05-10T13:50:14;1.30;;;1.10;;
13469;SDS011;6807;48.682;9.032;2023-05-10T13:52:42;2.42;;;1.30;;
13469;SDS011;6807;48.682;9.032;2023-05-10T13:55:13;2.08;;;1.20;;
13469;SDS011;6807;48.682;9.032;2023-05-10T13:57:48;1.25;;;1.10;;
13469;SDS011;6807;48.682;9.032;2023-05-10T14:00:15;1.20;;;1.10;;
13469;SDS011;6807;48.682;9.032;2023-05-10T14:02:49;2.05;;;1.27;;
13469;SDS011;6807;48.682;9.032;2023-05-10T14:05:18;1.30;;;1.20;;
13469;SDS011;6807;48.682;9.032;2023-05-10T14:07:45;4.40;;;1.33;;
13469;SDS011;6807;48.682;9.032;2023-05-10T14:10:14;2.05;;;1.42;;
13469;SDS011;6807;48.682;9.032;2023-05-10T14:12:42;2.78;;;1.20;;
13469;SDS011;6807;48.682;9.032;2023-05-10T14:15:09;3.53;;;1.20;;
13469;SDS011;6807;48.682;9.032;2023-05-10T14:17:37;2.25;;;1.23;;
13469;SDS011;6807;48.682;9.032;2023-05-10T14:20:04;1.67;;;1.10;;
13469;SDS011;6807;48.682;9.032;2023-05-10T14:22:35;1.67;;;1.20;;
13469;SDS011;6807;48.682;9.032;2023-05-10T14:25:05;1.65;;;1.27;;
13469;SDS011;6807;48.682;9.032;2023-05-10T14:27:34;3.88;;;1.65;;
13469;SDS011;6807;48.682;9.032;2023-05-10T14:30:02;1.50;;;1.33;;
13469;SDS011;6807;48.682;9.032;2023-05-10T14:32:29;1.15;;;1.00;;
13469;SDS011;6807;48.682;9.032;2023-05-10T14:34:57;1.50;;;1.40;;
13469;SDS011;6807;48.682;9.032;2023-05-10T14:37:24;2.60;;;1.20;;
13469;SDS011;6807;48.682;9.032;2023-05-10T14:39:53;2.40;;;1.70;;
13469;SDS011;6807;48.682;9.032;2023-05-10T14:42:21;1.40;;;1.30;;
13469;SDS011;6807;48.682;9.032;2023-05-10T14:44:48;1.30;;;1.20;;
13469;SDS011;6807;48.682;9.032;2023-05-10T14:47:15;2.78;;;1.20;;
13469;SDS011;6807;48.682;9.032;2023-05-10T14:49:43;1.60;;;1.25;;
13469;SDS011;6807;48.682;9.032;2023-05-10T14:52:10;2.17;;;1.10;;
13469;SDS011;6807;48.682;9.032;2023-05-10T14:54:39;1.05;;;1.00;;
13469;SDS011;6807;48.682;9.032;2023-05-10T14:57:08;5.53;;;1.10;;
13469;SDS011;6807;48.682;9.032;2023-05-10T14:59:49;1.33;;;1.23;;
13469;SDS011;6807;48.682;9.032;2023-05-10T15:02:16;2.17;;;1.20;;
13469;SDS011;6807;48.682;9.032;2023-05-10T15:04:44;1.10;;;1.10;;
13469;SDS011;6807;48.682;9.032;2023-05-10T15:07:11;2.42;;;1.20;;
13469;SDS011;6807;48.682;9.032;2023-05-10T15:09:40;1.42;;;1.23;;
13469;SDS011;6807;48.682;9.032;2023-05-10T15:12:09;1.10;;;1.10;;
13469;SDS011;6807;48.682;9.032;2023-05-10T15:14:36;1.67;;;1.23;;
13469;SDS011;6807;48.682;9.032;2023-05-10T15:17:05;1.05;;;0.98;;
13469;SDS011;6807;48.682;9.032;2023-05-10T15:19:33;1.40;;;1.10;;
13469;SDS011;6807;48.682;9.032;2023-05-10T15:22:01;2.45;;;1.05;;